createdAt,value
2022-11-09T00:01:49.468Z,31.10
2022-11-09T00:04:51.356Z,31.00
2022-11-09T00:07:53.475Z,31.10
2022-11-09T00:10:55.599Z,31.10
2022-11-09T00:13:57.748Z,31.00
2022-11-09T00:17:00.025Z,31.10
2022-11-09T00:20:02.217Z,31.20
2022-11-09T00:23:04.098Z,31.10
2022-11-09T00:26:08.309Z,31.10
2022-11-09T00:29:10.189Z,31.00
2022-11-09T00:32:12.533Z,30.90
2022-11-09T00:35:14.491Z,31.10
2022-11-09T00:38:16.682Z,31.20
2022-11-09T00:41:19.312Z,31.10
2022-11-09T00:44:21.691Z,31.20
2022-11-09T00:47:23.612Z,31.20
2022-11-09T00:50:25.837Z,31.20
2022-11-09T00:53:28.074Z,31.30
2022-11-09T00:56:30.208Z,31.20
2022-11-09T00:59:32.060Z,31.20
2022-11-09T01:02:34.530Z,31.30
2022-11-09T01:05:39.551Z,31.30
2022-11-09T01:08:41.825Z,31.30
2022-11-09T01:11:43.769Z,31.30
2022-11-09T01:14:45.986Z,31.40
2022-11-09T01:17:47.927Z,31.30
2022-11-09T01:20:51.122Z,31.40
2022-11-09T01:23:53.222Z,31.00
2022-11-09T01:26:55.373Z,31.20
2022-11-09T01:29:57.216Z,31.30
2022-11-09T01:32:59.442Z,31.30
2022-11-09T01:36:13.765Z,31.40
2022-11-09T01:39:15.910Z,31.50
2022-11-09T01:42:26.377Z,31.50
2022-11-09T01:45:30.342Z,31.40
2022-11-09T01:48:58.683Z,31.40
2022-11-09T01:52:14.174Z,31.40
2022-11-09T01:55:20.003Z,31.60
2022-11-09T01:58:28.763Z,31.50
2022-11-09T02:01:33.062Z,31.50
2022-11-09T02:04:46.498Z,31.50
2022-11-09T02:07:50.109Z,31.50
2022-11-09T02:11:01.693Z,31.40
2022-11-09T02:14:04.394Z,31.50
2022-11-09T02:17:07.705Z,31.40
2022-11-09T02:20:16.652Z,31.30
2022-11-09T02:23:20.147Z,31.20
2022-11-09T02:26:33.772Z,31.20
2022-11-09T02:29:40.560Z,31.20
2022-11-09T02:32:42.594Z,31.10
2022-11-09T02:35:44.843Z,31.10
2022-11-09T02:38:46.813Z,30.90
2022-11-09T02:42:01.459Z,30.90
2022-11-09T02:45:05.029Z,31.00
2022-11-09T02:48:07.288Z,31.00
2022-11-09T02:51:09.226Z,31.00
2022-11-09T02:54:12.747Z,30.80
2022-11-09T02:57:14.725Z,30.90
2022-11-09T03:00:24.073Z,31.00
2022-11-09T03:03:26.037Z,31.10
2022-11-09T03:06:34.651Z,31.00
2022-11-09T03:09:36.810Z,31.00
2022-11-09T03:12:39.013Z,31.10
2022-11-09T03:15:44.036Z,30.90
2022-11-09T03:18:46.173Z,31.00
2022-11-09T03:21:48.033Z,31.00
2022-11-09T03:24:50.293Z,31.20
2022-11-09T03:27:58.004Z,31.20
2022-11-09T03:31:00.229Z,31.20
2022-11-09T03:34:02.216Z,31.30
2022-11-09T03:37:04.373Z,31.20
2022-11-09T03:40:06.964Z,31.40
2022-11-09T03:43:09.321Z,31.40
2022-11-09T03:46:11.233Z,31.50
2022-11-09T03:49:13.498Z,31.30
2022-11-09T03:52:17.867Z,31.40
2022-11-09T03:55:20.108Z,31.40
2022-11-09T03:58:21.958Z,31.40
2022-11-09T04:01:24.336Z,31.40
2022-11-09T04:04:26.278Z,31.40
2022-11-09T04:07:28.475Z,31.40
2022-11-09T04:10:30.345Z,31.40
2022-11-09T04:13:32.602Z,31.40
2022-11-09T04:16:34.655Z,31.40
2022-11-09T04:19:36.884Z,31.40
2022-11-09T04:22:41.745Z,31.50
2022-11-09T04:25:43.914Z,31.50
2022-11-09T04:28:45.840Z,31.50
2022-11-09T04:31:51.737Z,31.50
2022-11-09T04:34:53.744Z,31.50
2022-11-09T04:38:06.789Z,31.50
2022-11-09T04:41:08.819Z,31.40
2022-11-09T04:44:10.966Z,31.40
2022-11-09T04:47:12.932Z,31.40
2022-11-09T04:50:15.288Z,31.40
2022-11-09T04:53:19.733Z,31.30
2022-11-09T04:56:22.315Z,31.30
2022-11-09T04:59:24.237Z,31.40
2022-11-09T05:02:27.634Z,31.30
2022-11-09T05:05:30.061Z,31.20
2022-11-09T05:08:35.290Z,31.30
2022-11-09T05:11:37.544Z,31.20
2022-11-09T05:14:39.707Z,31.30
2022-11-09T05:17:41.653Z,31.30
2022-11-09T05:20:43.806Z,31.40
2022-11-09T05:24:01.551Z,31.40
2022-11-09T05:27:05.039Z,31.50
2022-11-09T05:30:07.731Z,31.50
2022-11-09T05:33:11.269Z,31.50
2022-11-09T05:36:13.153Z,31.40
2022-11-09T05:39:15.287Z,31.40
2022-11-09T05:42:18.374Z,31.40
2022-11-09T05:45:41.632Z,31.30
2022-11-09T05:48:43.839Z,31.30
2022-11-09T05:51:48.532Z,31.30
2022-11-09T05:54:50.384Z,31.30
2022-11-09T05:57:54.546Z,31.30
2022-11-09T06:00:56.705Z,31.20
2022-11-09T06:03:58.914Z,31.10
2022-11-09T06:07:01.039Z,31.10
2022-11-09T06:10:04.645Z,31.10
2022-11-09T06:13:06.914Z,31.00
2022-11-09T06:16:10.272Z,31.00
2022-11-09T06:19:13.160Z,31.00
2022-11-09T06:22:15.703Z,31.10
2022-11-09T06:25:17.587Z,31.10
2022-11-09T06:28:20.312Z,31.00
2022-11-09T06:31:22.475Z,31.20
2022-11-09T06:34:24.914Z,31.20
2022-11-09T06:37:26.848Z,31.20
2022-11-09T06:40:29.719Z,31.10
2022-11-09T06:43:31.665Z,31.20
2022-11-09T06:46:34.186Z,31.20
2022-11-09T06:49:36.059Z,31.00
2022-11-09T06:52:39.789Z,31.10
2022-11-09T06:55:48.815Z,31.20
2022-11-09T06:58:52.890Z,31.40
2022-11-09T07:02:00.173Z,31.50
2022-11-09T07:05:03.695Z,31.60
2022-11-09T07:08:05.969Z,31.70
2022-11-09T07:11:13.391Z,31.80
2022-11-09T07:14:15.287Z,31.80
2022-11-09T07:17:18.248Z,31.90
2022-11-09T07:20:22.388Z,32.00
2022-11-09T07:23:24.997Z,32.10
2022-11-09T07:26:27.466Z,32.20
2022-11-09T07:29:29.666Z,32.30
2022-11-09T07:33:02.496Z,32.40
2022-11-09T07:35:59.551Z,32.40
2022-11-09T07:39:04.343Z,32.30
2022-11-09T07:42:09.355Z,32.40
2022-11-09T07:45:11.984Z,32.30
2022-11-09T07:48:14.271Z,32.50
2022-11-09T07:51:18.711Z,32.40
2022-11-09T07:54:28.803Z,32.40
2022-11-09T07:57:33.955Z,32.30
2022-11-09T08:00:38.227Z,32.30
2022-11-09T08:03:40.122Z,32.50
2022-11-09T08:06:42.723Z,32.50
2022-11-09T08:09:44.811Z,32.50
2022-11-09T08:12:53.887Z,32.20
2022-11-09T08:16:27.876Z,32.50
2022-11-09T08:19:30.127Z,32.50
2022-11-09T08:22:32.052Z,32.50
2022-11-09T08:25:37.914Z,32.70
2022-11-09T08:28:39.836Z,32.40
2022-11-09T08:31:42.184Z,32.20
2022-11-09T08:34:48.304Z,32.70
2022-11-09T08:37:52.345Z,32.80
2022-11-09T08:40:58.728Z,32.60
2022-11-09T08:44:01.006Z,32.80
2022-11-09T08:47:03.047Z,32.90
2022-11-09T08:50:08.835Z,32.90
2022-11-09T08:53:11.050Z,32.90
2022-11-09T08:56:13.346Z,33.10
2022-11-09T08:59:18.175Z,33.30
2022-11-09T09:02:23.724Z,33.20
2022-11-09T09:05:26.690Z,33.10
2022-11-09T09:08:29.439Z,32.60
2022-11-09T09:11:31.437Z,32.80
2022-11-09T09:14:34.191Z,33.10
2022-11-09T09:17:36.101Z,33.30
2022-11-09T09:20:38.287Z,33.50
2022-11-09T09:23:40.296Z,33.70
2022-11-09T09:26:43.992Z,33.70
2022-11-09T09:29:46.100Z,33.70
2022-11-09T09:32:48.315Z,33.80
2022-11-09T09:35:54.627Z,33.40
2022-11-09T09:38:56.859Z,33.70
2022-11-09T09:42:02.423Z,33.80
2022-11-09T09:45:27.035Z,33.90
2022-11-09T09:48:50.647Z,34.00
2022-11-09T09:52:00.087Z,33.80
2022-11-09T09:55:12.795Z,33.40
2022-11-09T09:58:23.714Z,33.70
2022-11-09T10:01:40.861Z,33.60
2022-11-09T10:04:43.398Z,33.80
2022-11-09T10:08:07.128Z,33.80
2022-11-09T10:11:16.768Z,33.60
2022-11-09T10:14:32.645Z,33.80
2022-11-09T10:18:14.461Z,33.70
2022-11-09T10:21:38.100Z,33.60
2022-11-09T10:25:31.999Z,33.80
2022-11-09T10:28:42.394Z,33.70
2022-11-09T10:31:57.652Z,33.50
2022-11-09T10:35:17.218Z,33.60
2022-11-09T10:38:26.050Z,33.50
2022-11-09T10:41:48.489Z,33.40
2022-11-09T10:44:50.738Z,33.30
2022-11-09T10:47:52.998Z,33.40
2022-11-09T10:50:55.328Z,33.50
2022-11-09T10:54:26.488Z,33.60
2022-11-09T10:57:28.606Z,34.50
2022-11-09T11:00:30.614Z,34.70
2022-11-09T11:03:36.655Z,34.50
2022-11-09T11:06:38.622Z,34.60
2022-11-09T11:09:42.395Z,34.80
2022-11-09T11:12:57.510Z,34.70
2022-11-09T11:15:59.733Z,34.70
2022-11-09T11:19:02.721Z,34.50
2022-11-09T11:22:14.487Z,34.80
2022-11-09T11:25:24.963Z,34.80
2022-11-09T11:28:57.274Z,35.10
2022-11-09T11:31:59.157Z,35.10
2022-11-09T11:35:07.146Z,35.00
2022-11-09T11:38:25.381Z,35.00
2022-11-09T11:41:36.456Z,35.00
2022-11-09T11:45:25.627Z,34.60
2022-11-09T11:48:46.231Z,34.60
2022-11-09T11:52:14.696Z,34.80
2022-11-09T11:55:29.686Z,34.90
2022-11-09T11:58:59.379Z,35.00
2022-11-09T12:02:27.115Z,35.10
2022-11-09T12:05:48.087Z,35.20
2022-11-09T12:09:16.889Z,35.10
2022-11-09T12:12:41.535Z,34.70
2022-11-09T12:16:08.582Z,34.70
2022-11-09T12:19:46.151Z,34.60
2022-11-09T12:23:00.653Z,34.70
2022-11-09T12:26:33.609Z,34.80
2022-11-09T12:30:00.461Z,34.60
2022-11-09T12:33:33.493Z,34.70
2022-11-09T12:37:01.366Z,34.50
2022-11-09T12:40:26.443Z,34.60
2022-11-09T12:43:41.855Z,34.90
2022-11-09T12:46:51.321Z,34.90
2022-11-09T12:49:55.968Z,34.90
2022-11-09T12:53:00.261Z,34.90
2022-11-09T12:56:05.191Z,34.60
2022-11-09T12:59:29.236Z,34.80
2022-11-09T13:02:55.258Z,34.80
2022-11-09T13:06:09.604Z,34.90
2022-11-09T13:09:25.908Z,35.00
2022-11-09T13:12:35.271Z,35.00
2022-11-09T13:16:10.192Z,34.80
2022-11-09T13:19:34.759Z,34.60
2022-11-09T13:22:42.647Z,34.50
2022-11-09T13:25:53.156Z,34.50
2022-11-09T13:29:26.168Z,34.60
2022-11-09T13:32:33.452Z,34.70
2022-11-09T13:35:56.268Z,34.70
2022-11-09T13:39:24.046Z,34.60
2022-11-09T13:42:35.931Z,34.70
2022-11-09T13:45:53.627Z,34.60
2022-11-09T13:48:56.136Z,34.60
2022-11-09T13:51:58.003Z,34.60
2022-11-09T13:55:00.483Z,34.50
2022-11-09T13:58:29.945Z,34.50
2022-11-09T14:01:46.331Z,34.40
2022-11-09T14:04:48.660Z,34.20
2022-11-09T14:07:50.850Z,34.20
2022-11-09T14:10:52.832Z,34.10
2022-11-09T14:14:22.656Z,34.20
2022-11-09T14:17:52.691Z,34.30
2022-11-09T14:21:08.491Z,34.20
2022-11-09T14:24:20.158Z,34.10
2022-11-09T14:27:23.405Z,34.00
2022-11-09T14:30:28.605Z,34.00
2022-11-09T14:33:34.883Z,34.00
2022-11-09T14:36:40.645Z,34.00
2022-11-09T14:39:49.193Z,34.00
2022-11-09T14:43:13.997Z,34.00
2022-11-09T14:46:20.027Z,34.10
2022-11-09T14:49:24.484Z,34.20
2022-11-09T14:52:29.188Z,34.30
2022-11-09T14:55:41.382Z,34.30
2022-11-09T14:58:47.636Z,34.30
2022-11-09T15:02:05.764Z,34.30
2022-11-09T15:05:08.133Z,34.40
2022-11-09T15:08:22.516Z,34.30
2022-11-09T15:11:39.232Z,34.20
2022-11-09T15:14:41.682Z,34.10
2022-11-09T15:17:46.637Z,34.10
2022-11-09T15:20:48.583Z,34.00
2022-11-09T15:24:08.691Z,34.00
2022-11-09T15:27:31.409Z,33.90
2022-11-09T15:30:46.137Z,33.80
2022-11-09T15:33:53.866Z,33.60
2022-11-09T15:36:56.309Z,33.70
2022-11-09T15:39:59.256Z,33.70
2022-11-09T15:43:02.821Z,33.60
2022-11-09T15:46:05.261Z,33.60
2022-11-09T15:49:15.517Z,33.60
2022-11-09T15:52:18.830Z,33.50
2022-11-09T15:55:28.090Z,33.30
2022-11-09T15:58:32.173Z,33.40
2022-11-09T16:01:34.426Z,33.30
2022-11-09T16:04:36.394Z,33.20
2022-11-09T16:07:46.781Z,33.30
2022-11-09T16:10:48.728Z,33.30
2022-11-09T16:13:50.893Z,33.30
2022-11-09T16:16:52.787Z,33.20
2022-11-09T16:19:55.036Z,33.30
2022-11-09T16:22:57.064Z,33.20
2022-11-09T16:25:59.719Z,33.20
2022-11-09T16:29:01.703Z,33.00
2022-11-09T16:32:07.309Z,33.00
2022-11-09T16:38:39.030Z,32.90
2022-11-09T16:41:42.014Z,33.00
2022-11-09T16:44:46.833Z,33.00
2022-11-09T16:47:52.810Z,33.00
2022-11-09T16:50:55.393Z,32.90
2022-11-09T16:53:57.437Z,32.80
2022-11-09T16:57:00.198Z,32.70
2022-11-09T17:00:02.284Z,32.40
2022-11-09T17:03:04.837Z,32.60
2022-11-09T17:06:11.084Z,32.90
2022-11-09T17:09:24.837Z,33.00
2022-11-09T17:12:26.715Z,33.00
2022-11-09T17:15:29.310Z,32.90
2022-11-09T17:18:31.515Z,32.70
2022-11-09T17:21:36.544Z,32.60
2022-11-09T17:24:38.522Z,32.40
2022-11-09T17:27:40.752Z,32.40
2022-11-09T17:30:42.671Z,32.40
2022-11-09T17:33:45.693Z,32.60
2022-11-09T17:37:03.777Z,32.70
2022-11-09T17:40:07.668Z,32.60
2022-11-09T17:43:09.593Z,32.70
2022-11-09T17:46:14.790Z,32.70
2022-11-09T17:49:16.879Z,32.40
2022-11-09T17:52:19.085Z,32.30
2022-11-09T17:55:21.071Z,32.40
2022-11-09T17:58:23.890Z,32.20
2022-11-09T18:01:25.891Z,32.00
2022-11-09T18:04:28.223Z,32.10
2022-11-09T18:07:31.167Z,31.90
2022-11-09T18:10:33.385Z,31.80
2022-11-09T18:13:35.463Z,31.70
2022-11-09T18:16:37.780Z,31.70
2022-11-09T18:19:39.697Z,31.60
2022-11-09T18:22:41.837Z,31.60
2022-11-09T18:25:44.314Z,31.70
2022-11-09T18:28:46.915Z,31.60
2022-11-09T18:31:49.556Z,31.50
2022-11-09T18:34:51.772Z,31.50
2022-11-09T18:37:53.756Z,31.50
2022-11-09T18:41:07.449Z,31.50
2022-11-09T18:44:10.237Z,31.70
2022-11-09T18:47:13.774Z,31.70
2022-11-09T18:50:17.280Z,31.90
2022-11-09T18:53:21.559Z,32.10
2022-11-09T18:56:25.451Z,32.00
2022-11-09T18:59:27.645Z,32.00
2022-11-09T19:02:29.620Z,31.80
2022-11-09T19:05:32.145Z,31.50
2022-11-09T19:08:52.859Z,31.60
2022-11-09T19:11:59.090Z,31.50
2022-11-09T19:15:02.102Z,31.60
2022-11-09T19:18:05.895Z,31.90
2022-11-09T19:21:47.853Z,31.80
2022-11-09T19:24:50.062Z,31.60
2022-11-09T19:27:51.950Z,31.60
2022-11-09T19:30:58.570Z,31.40
2022-11-09T19:34:00.859Z,31.30
2022-11-09T19:37:03.057Z,31.20
2022-11-09T19:40:05.521Z,31.40
2022-11-09T19:43:07.695Z,31.50
2022-11-09T19:46:09.680Z,31.50
2022-11-09T19:49:12.142Z,31.70
2022-11-09T19:52:14.111Z,31.60
2022-11-09T19:55:16.329Z,31.20
2022-11-09T19:58:21.424Z,31.00
2022-11-09T20:01:24.169Z,31.20
2022-11-09T20:04:26.658Z,31.50
2022-11-09T20:07:31.562Z,31.60
2022-11-09T20:10:37.414Z,31.60
2022-11-09T20:13:40.614Z,31.30
2022-11-09T20:16:44.444Z,31.40
2022-11-09T20:19:46.640Z,31.40
2022-11-09T20:22:49.782Z,31.40
2022-11-09T20:25:52.800Z,30.80
2022-11-09T20:28:55.527Z,31.30
2022-11-09T20:31:57.764Z,31.50
2022-11-09T20:35:00.350Z,31.40
2022-11-09T20:38:02.784Z,31.60
2022-11-09T20:41:10.800Z,31.60
2022-11-09T20:44:13.593Z,31.40
2022-11-09T20:47:30.133Z,31.20
2022-11-09T20:50:39.271Z,31.50
2022-11-09T20:53:41.195Z,31.40
2022-11-09T20:56:44.271Z,31.50
2022-11-09T20:59:46.154Z,31.50
2022-11-09T21:02:48.917Z,31.40
2022-11-09T21:05:58.943Z,31.30
2022-11-09T21:09:06.222Z,31.40
2022-11-09T21:12:24.950Z,31.30
2022-11-09T21:15:27.419Z,31.20
2022-11-09T21:18:29.386Z,31.00
2022-11-09T21:21:36.564Z,31.10
2022-11-09T21:24:57.267Z,31.10
2022-11-09T21:28:18.313Z,31.30
2022-11-09T21:31:20.263Z,31.30
2022-11-09T21:34:24.709Z,31.30
2022-11-09T21:37:26.619Z,31.50
2022-11-09T21:40:28.901Z,31.50
2022-11-09T21:43:30.963Z,31.30
2022-11-09T21:46:33.634Z,31.20
2022-11-09T21:49:35.621Z,31.20
2022-11-09T21:52:40.176Z,31.40
2022-11-09T21:55:43.085Z,31.20
2022-11-09T21:58:49.355Z,31.20
2022-11-09T22:01:52.143Z,31.40
2022-11-09T22:04:54.408Z,31.20
2022-11-09T22:07:56.359Z,31.20
2022-11-09T22:11:12.015Z,31.00
2022-11-09T22:14:37.479Z,31.40
2022-11-09T22:17:39.625Z,31.20
2022-11-09T22:20:57.333Z,31.40
2022-11-09T22:24:00.839Z,31.40
2022-11-09T22:27:04.037Z,31.20
2022-11-09T22:30:06.971Z,31.40
2022-11-09T22:33:08.926Z,31.70
2022-11-09T22:36:13.029Z,31.40
2022-11-09T22:39:14.894Z,31.40
2022-11-09T22:42:17.035Z,31.50
2022-11-09T22:45:19.121Z,31.60
2022-11-09T22:48:22.632Z,31.70
2022-11-09T22:51:24.762Z,31.80
2022-11-09T22:54:28.153Z,31.70
2022-11-09T22:57:32.893Z,31.50
2022-11-09T23:00:35.088Z,31.60
2022-11-09T23:03:37.072Z,31.70
2022-11-09T23:06:39.341Z,31.80
2022-11-09T23:09:41.270Z,31.70
2022-11-09T23:12:43.412Z,31.90
2022-11-09T23:15:58.666Z,31.80
2022-11-09T23:19:00.807Z,31.70
2022-11-09T23:22:06.920Z,31.70
2022-11-09T23:25:35.699Z,31.80
2022-11-09T23:28:38.256Z,31.80
2022-11-09T23:31:40.564Z,31.80
2022-11-09T23:34:42.468Z,32.00
2022-11-09T23:37:44.870Z,32.00
2022-11-09T23:40:47.138Z,31.80
2022-11-09T23:43:50.118Z,31.80
2022-11-09T23:46:52.262Z,31.80
2022-11-09T23:49:54.429Z,31.60
2022-11-09T23:53:00.737Z,31.60
2022-11-09T23:56:08.804Z,31.60
2022-11-09T23:59:10.696Z,31.40
